createdAt,value
2022-08-30T00:02:23.071Z,19.40
2022-08-30T00:04:57.467Z,19.40
2022-08-30T00:07:26.343Z,19.37
2022-08-30T00:09:56.703Z,19.35
2022-08-30T00:12:25.122Z,19.32
2022-08-30T00:14:59.792Z,19.27
2022-08-30T00:17:29.080Z,19.27
2022-08-30T00:20:02.356Z,19.23
2022-08-30T00:22:36.265Z,19.23
2022-08-30T00:25:05.031Z,19.18
2022-08-30T00:27:35.169Z,19.16
2022-08-30T00:30:04.563Z,19.16
2022-08-30T00:32:35.683Z,19.14
2022-08-30T00:35:04.546Z,19.11
2022-08-30T00:37:33.048Z,19.10
2022-08-30T00:40:01.192Z,19.06
2022-08-30T00:42:29.403Z,18.98
2022-08-30T00:44:57.587Z,18.98
2022-08-30T00:47:29.211Z,18.95
2022-08-30T00:49:59.269Z,18.94
2022-08-30T00:52:29.000Z,18.91
2022-08-30T00:55:03.679Z,18.88
2022-08-30T00:57:32.695Z,18.88
2022-08-30T01:00:09.188Z,18.87
2022-08-30T01:02:37.733Z,18.84
2022-08-30T01:05:06.863Z,18.86
2022-08-30T01:07:36.435Z,18.84
2022-08-30T01:10:14.039Z,18.82
2022-08-30T01:12:42.406Z,18.79
2022-08-30T01:15:15.662Z,18.77
2022-08-30T01:17:46.024Z,18.74
2022-08-30T01:20:16.583Z,18.75
2022-08-30T01:22:50.916Z,18.74
2022-08-30T01:25:25.604Z,18.71
2022-08-30T01:28:17.647Z,18.68
2022-08-30T01:30:46.030Z,18.66
2022-08-30T01:33:18.982Z,18.67
2022-08-30T01:35:52.667Z,18.67
2022-08-30T01:38:32.132Z,18.66
2022-08-30T01:41:01.554Z,18.58
2022-08-30T01:43:30.048Z,18.54
2022-08-30T01:46:01.069Z,18.50
2022-08-30T01:48:31.264Z,18.50
2022-08-30T01:51:01.836Z,18.51
2022-08-30T01:53:30.487Z,18.48
2022-08-30T01:55:59.623Z,18.47
2022-08-30T01:58:31.012Z,18.47
2022-08-30T02:01:02.199Z,18.49
2022-08-30T02:03:34.205Z,18.46
2022-08-30T02:06:09.764Z,18.42
2022-08-30T02:08:44.218Z,18.41
2022-08-30T02:11:18.435Z,18.42
2022-08-30T02:13:52.088Z,18.39
2022-08-30T02:16:28.111Z,18.35
2022-08-30T02:19:00.257Z,18.38
2022-08-30T02:21:34.323Z,18.36
2022-08-30T02:24:03.841Z,18.37
2022-08-30T02:26:37.597Z,18.37
2022-08-30T02:29:12.993Z,18.35
2022-08-30T02:31:41.252Z,18.31
2022-08-30T02:34:13.944Z,18.28
2022-08-30T02:36:48.251Z,18.28
2022-08-30T02:39:19.975Z,18.26
2022-08-30T02:41:49.254Z,18.25
2022-08-30T02:44:18.529Z,18.23
2022-08-30T02:46:49.470Z,18.21
2022-08-30T02:49:34.139Z,18.22
2022-08-30T02:52:03.992Z,18.21
2022-08-30T02:54:45.739Z,18.18
2022-08-30T02:57:23.023Z,18.14
2022-08-30T02:59:52.122Z,18.14
2022-08-30T03:02:26.678Z,18.16
2022-08-30T03:05:04.737Z,18.20
2022-08-30T03:07:43.906Z,18.23
2022-08-30T03:10:14.048Z,18.23
2022-08-30T03:12:45.150Z,18.20
2022-08-30T03:15:17.160Z,18.12
2022-08-30T03:17:48.552Z,18.10
2022-08-30T03:20:19.325Z,18.09
2022-08-30T03:22:48.571Z,18.07
2022-08-30T03:25:24.878Z,18.07
2022-08-30T03:27:53.438Z,18.04
2022-08-30T03:30:24.890Z,18.02
2022-08-30T03:32:55.970Z,17.98
2022-08-30T03:35:33.169Z,17.99
2022-08-30T03:38:02.847Z,17.99
2022-08-30T03:40:31.093Z,18.00
2022-08-30T03:43:02.501Z,18.02
2022-08-30T03:45:31.088Z,18.02
2022-08-30T03:48:00.699Z,17.98
2022-08-30T03:50:38.209Z,17.93
2022-08-30T03:53:07.768Z,17.92
2022-08-30T03:55:42.635Z,17.97
2022-08-30T03:58:14.789Z,17.97
2022-08-30T04:00:47.619Z,17.96
2022-08-30T04:03:28.910Z,17.94
2022-08-30T04:05:57.516Z,17.95
2022-08-30T04:08:26.767Z,17.88
2022-08-30T04:11:02.353Z,17.85
2022-08-30T04:13:33.506Z,17.85
2022-08-30T04:16:05.008Z,17.85
2022-08-30T04:18:36.830Z,17.85
2022-08-30T04:21:14.302Z,17.82
2022-08-30T04:23:43.025Z,17.77
2022-08-30T04:26:11.734Z,17.76
2022-08-30T04:28:43.019Z,17.75
2022-08-30T04:31:16.172Z,17.77
2022-08-30T04:33:45.063Z,17.77
2022-08-30T04:36:19.742Z,17.71
2022-08-30T04:38:49.726Z,17.72
2022-08-30T04:41:23.294Z,17.73
2022-08-30T04:44:00.569Z,17.73
2022-08-30T04:46:36.356Z,17.74
2022-08-30T04:49:15.962Z,17.70
2022-08-30T04:51:47.004Z,17.71
2022-08-30T04:54:18.088Z,17.73
2022-08-30T04:56:52.366Z,17.75
2022-08-30T04:59:25.042Z,17.76
2022-08-30T05:01:53.672Z,17.77
2022-08-30T05:04:32.055Z,17.77
2022-08-30T05:07:04.512Z,17.75
2022-08-30T05:09:41.430Z,17.77
2022-08-30T05:12:19.940Z,17.80
2022-08-30T05:14:49.833Z,17.81
2022-08-30T05:17:19.058Z,17.75
2022-08-30T05:19:47.288Z,17.81
2022-08-30T05:22:18.477Z,17.85
2022-08-30T05:24:48.164Z,17.90
2022-08-30T05:27:18.743Z,17.95
2022-08-30T05:29:48.748Z,17.96
2022-08-30T05:32:17.191Z,18.01
2022-08-30T05:34:45.424Z,18.04
2022-08-30T05:37:13.778Z,18.08
2022-08-30T05:39:51.478Z,18.10
2022-08-30T05:42:21.467Z,18.10
2022-08-30T05:44:55.804Z,18.11
2022-08-30T05:47:35.642Z,18.19
2022-08-30T05:50:08.404Z,18.26
2022-08-30T05:52:44.822Z,18.32
2022-08-30T05:55:14.192Z,18.36
2022-08-30T05:57:49.194Z,18.43
2022-08-30T06:00:19.373Z,18.47
2022-08-30T06:02:54.060Z,18.49
2022-08-30T06:05:22.271Z,18.53
2022-08-30T06:08:03.822Z,18.60
2022-08-30T06:10:32.497Z,18.66
2022-08-30T06:13:04.779Z,18.65
2022-08-30T06:15:35.518Z,18.62
2022-08-30T06:18:04.458Z,18.65
2022-08-30T06:20:37.169Z,18.74
2022-08-30T06:23:07.297Z,18.82
2022-08-30T06:25:41.162Z,18.87
2022-08-30T06:28:10.738Z,18.91
2022-08-30T06:30:40.971Z,19.00
2022-08-30T06:33:10.424Z,19.06
2022-08-30T06:35:56.719Z,19.16
2022-08-30T06:38:27.209Z,19.21
2022-08-30T06:40:55.198Z,19.29
2022-08-30T06:43:26.409Z,19.38
2022-08-30T06:45:54.350Z,19.44
2022-08-30T06:48:22.143Z,19.51
2022-08-30T06:50:55.063Z,19.69
2022-08-30T06:53:23.049Z,19.79
2022-08-30T06:56:02.102Z,19.78
2022-08-30T06:58:30.852Z,19.78
2022-08-30T07:00:58.946Z,19.85
2022-08-30T07:03:28.884Z,19.99
2022-08-30T07:06:00.307Z,19.99
2022-08-30T07:08:28.742Z,20.10
2022-08-30T07:11:02.738Z,20.12
2022-08-30T07:13:33.654Z,20.16
2022-08-30T07:16:19.814Z,20.22
2022-08-30T07:18:56.026Z,20.23
2022-08-30T07:21:35.724Z,20.29
2022-08-30T07:24:03.794Z,20.39
2022-08-30T07:26:37.089Z,20.47
2022-08-30T07:29:05.244Z,20.55
2022-08-30T07:31:34.131Z,20.58
2022-08-30T07:34:01.926Z,20.66
2022-08-30T07:36:29.761Z,20.76
2022-08-30T07:38:58.561Z,20.92
2022-08-30T07:41:39.597Z,21.04
2022-08-30T07:44:13.793Z,21.17
2022-08-30T07:46:41.784Z,21.28
2022-08-30T07:49:11.317Z,21.35
2022-08-30T07:51:39.400Z,21.36
2022-08-30T07:54:08.199Z,21.40
2022-08-30T07:56:37.133Z,21.57
2022-08-30T07:59:05.035Z,21.69
2022-08-30T08:01:33.073Z,21.83
2022-08-30T08:04:00.873Z,21.89
2022-08-30T08:06:34.781Z,22.01
2022-08-30T08:09:03.534Z,22.12
2022-08-30T08:11:33.863Z,22.18
2022-08-30T08:14:02.058Z,22.17
2022-08-30T08:16:31.221Z,22.27
2022-08-30T08:18:59.251Z,22.43
2022-08-30T08:21:27.319Z,22.52
2022-08-30T08:24:00.619Z,22.50
2022-08-30T08:26:37.649Z,22.61
2022-08-30T08:29:06.634Z,22.81
2022-08-30T08:31:34.861Z,22.85
2022-08-30T08:34:03.832Z,22.90
2022-08-30T08:36:32.564Z,22.93
2022-08-30T08:39:00.701Z,23.03
2022-08-30T08:41:47.088Z,23.08
2022-08-30T08:44:42.407Z,23.13
2022-08-30T08:47:16.264Z,23.23
2022-08-30T08:49:45.961Z,23.37
2022-08-30T08:52:36.239Z,23.53
2022-08-30T08:55:10.420Z,23.65
2022-08-30T08:57:38.806Z,23.88
2022-08-30T09:00:08.659Z,24.07
2022-08-30T09:02:57.954Z,24.24
2022-08-30T09:05:27.887Z,24.27
2022-08-30T09:08:04.619Z,24.43
2022-08-30T09:10:49.996Z,24.56
2022-08-30T09:13:19.363Z,24.62
2022-08-30T09:15:53.827Z,24.75
2022-08-30T09:18:41.076Z,24.82
2022-08-30T09:21:10.577Z,24.92
2022-08-30T09:23:38.670Z,25.09
2022-08-30T09:26:08.419Z,25.16
2022-08-30T09:28:49.230Z,25.30
2022-08-30T09:34:16.894Z,25.41
2022-08-30T09:36:54.877Z,25.40
2022-08-30T09:39:34.707Z,25.50
2022-08-30T09:42:20.843Z,25.63
2022-08-30T09:44:48.686Z,25.70
2022-08-30T09:47:43.593Z,25.80
2022-08-30T09:50:14.199Z,25.90
2022-08-30T09:53:10.969Z,26.04
2022-08-30T09:56:10.079Z,26.00
2022-08-30T09:58:37.962Z,26.08
2022-08-30T10:01:13.426Z,26.07
2022-08-30T10:04:12.639Z,26.05
2022-08-30T10:06:46.510Z,26.10
2022-08-30T10:09:32.809Z,26.19
2022-08-30T10:12:24.964Z,26.14
2022-08-30T10:15:00.487Z,26.13
2022-08-30T10:17:50.252Z,26.21
2022-08-30T10:20:23.072Z,26.21
2022-08-30T10:22:58.659Z,26.21
2022-08-30T10:25:31.198Z,26.28
2022-08-30T10:28:03.725Z,26.31
2022-08-30T10:30:33.383Z,26.37
2022-08-30T10:33:18.840Z,26.49
2022-08-30T10:36:01.238Z,26.58
2022-08-30T10:38:33.485Z,26.59
2022-08-30T10:41:21.037Z,26.75
2022-08-30T10:44:21.527Z,26.79
2022-08-30T10:46:52.142Z,26.86
2022-08-30T10:49:22.691Z,26.99
2022-08-30T10:51:55.882Z,27.10
2022-08-30T10:54:41.286Z,27.20
2022-08-30T10:57:09.161Z,27.26
2022-08-30T10:59:37.819Z,27.21
2022-08-30T11:02:43.324Z,27.32
2022-08-30T11:05:45.313Z,27.37
2022-08-30T11:08:37.114Z,27.56
2022-08-30T11:11:40.715Z,27.75
2022-08-30T11:14:09.029Z,27.87
2022-08-30T11:16:48.971Z,27.97
2022-08-30T11:19:38.631Z,28.15
2022-08-30T11:22:40.110Z,28.22
2022-08-30T11:25:13.483Z,28.38
2022-08-30T11:27:51.377Z,28.55
2022-08-30T11:30:26.478Z,28.63
2022-08-30T11:33:11.249Z,28.71
2022-08-30T11:35:51.113Z,28.70
2022-08-30T11:38:30.641Z,28.67
2022-08-30T11:41:00.243Z,28.75
2022-08-30T11:43:37.518Z,28.90
2022-08-30T11:46:27.283Z,28.93
2022-08-30T11:48:56.210Z,29.08
2022-08-30T11:52:23.736Z,29.28
2022-08-30T11:54:53.204Z,29.45
2022-08-30T11:57:38.593Z,29.50
2022-08-30T12:00:12.910Z,29.43
2022-08-30T12:02:58.458Z,29.47
2022-08-30T12:05:48.312Z,29.53
2022-08-30T12:08:24.339Z,29.54
2022-08-30T12:11:03.608Z,29.61
2022-08-30T12:13:40.303Z,29.65
2022-08-30T12:16:15.899Z,29.59
2022-08-30T12:18:46.806Z,29.70
2022-08-30T12:21:21.452Z,29.82
2022-08-30T12:23:53.851Z,29.87
2022-08-30T12:26:27.350Z,29.80
2022-08-30T12:29:22.515Z,29.77
2022-08-30T12:32:03.366Z,29.77
2022-08-30T12:34:44.499Z,29.61
2022-08-30T12:37:42.350Z,29.54
2022-08-30T12:40:17.210Z,29.48
2022-08-30T12:43:08.483Z,29.41
2022-08-30T12:45:45.153Z,29.23
2022-08-30T12:48:19.820Z,29.14
2022-08-30T12:50:55.950Z,29.05
2022-08-30T12:53:33.703Z,29.06
2022-08-30T12:56:02.486Z,29.03
2022-08-30T12:58:52.206Z,28.99
2022-08-30T13:01:29.353Z,29.05
2022-08-30T13:04:15.929Z,29.14
2022-08-30T13:06:45.154Z,29.05
2022-08-30T13:09:25.607Z,28.93
2022-08-30T13:11:54.676Z,28.68
2022-08-30T13:14:39.157Z,28.62
2022-08-30T13:17:27.817Z,28.58
2022-08-30T13:20:05.196Z,28.55
2022-08-30T13:22:34.869Z,28.43
2022-08-30T13:25:03.682Z,28.33
2022-08-30T13:27:31.980Z,28.24
2022-08-30T13:30:13.450Z,28.20
2022-08-30T13:32:42.520Z,28.16
2022-08-30T13:35:10.634Z,28.07
2022-08-30T13:37:50.026Z,28.02
2022-08-30T13:40:19.368Z,28.10
2022-08-30T13:42:47.363Z,28.43
2022-08-30T13:48:06.472Z,29.13
2022-08-30T13:50:34.371Z,29.42
2022-08-30T13:53:02.306Z,29.57
2022-08-30T13:55:30.070Z,29.62
2022-08-30T13:57:58.147Z,29.59
2022-08-30T14:00:26.405Z,29.54
2022-08-30T14:02:57.540Z,29.60
2022-08-30T14:05:57.270Z,29.54
2022-08-30T14:11:13.623Z,29.59
2022-08-30T14:16:32.603Z,29.50
2022-08-30T14:19:01.294Z,29.35
2022-08-30T14:21:29.328Z,29.17
2022-08-30T14:23:58.326Z,29.04
2022-08-30T14:26:37.318Z,28.85
2022-08-30T14:29:09.201Z,28.76
2022-08-30T14:31:38.070Z,28.73
2022-08-30T14:34:06.546Z,28.69
2022-08-30T14:36:34.821Z,28.67
2022-08-30T14:39:03.253Z,28.56
2022-08-30T14:41:39.019Z,28.44
2022-08-30T14:44:10.580Z,28.35
2022-08-30T14:46:38.702Z,28.23
2022-08-30T14:49:10.240Z,28.12
2022-08-30T14:51:39.269Z,28.05
2022-08-30T14:54:07.077Z,28.02
2022-08-30T14:56:35.676Z,27.98
2022-08-30T14:59:04.501Z,27.94
2022-08-30T15:01:32.505Z,27.89
2022-08-30T15:04:05.256Z,27.88
2022-08-30T15:06:35.770Z,27.81
2022-08-30T15:09:04.114Z,27.76
2022-08-30T15:11:31.869Z,27.75
2022-08-30T15:14:01.849Z,27.71
2022-08-30T15:16:32.095Z,27.67
2022-08-30T15:18:59.991Z,27.64
2022-08-30T15:21:33.002Z,27.63
2022-08-30T15:24:01.194Z,27.59
2022-08-30T15:26:29.122Z,27.55
2022-08-30T15:28:57.088Z,27.48
2022-08-30T15:31:27.003Z,27.44
2022-08-30T15:33:55.017Z,27.40
2022-08-30T15:36:24.509Z,27.31
2022-08-30T15:38:54.089Z,27.23
2022-08-30T15:41:21.928Z,27.16
2022-08-30T15:43:49.943Z,27.13
2022-08-30T15:46:29.543Z,27.08
2022-08-30T15:49:01.194Z,27.03
2022-08-30T15:51:30.851Z,26.98
2022-08-30T15:54:09.241Z,26.95
2022-08-30T15:56:39.767Z,26.93
2022-08-30T15:59:08.124Z,26.91
2022-08-30T16:01:37.483Z,26.90
2022-08-30T16:04:05.898Z,26.88
2022-08-30T16:06:38.334Z,26.88
2022-08-30T16:09:07.293Z,26.86
2022-08-30T16:11:35.291Z,26.83
2022-08-30T16:14:03.192Z,26.80
2022-08-30T16:16:32.218Z,26.73
2022-08-30T16:19:00.245Z,26.72
2022-08-30T16:21:30.013Z,26.68
2022-08-30T16:23:59.143Z,26.65
2022-08-30T16:26:27.427Z,26.59
2022-08-30T16:28:55.713Z,26.53
2022-08-30T16:31:23.844Z,26.46
2022-08-30T16:33:52.646Z,26.45
2022-08-30T16:36:21.586Z,26.40
2022-08-30T16:38:49.846Z,26.35
2022-08-30T16:41:21.772Z,26.31
2022-08-30T16:43:53.512Z,26.28
2022-08-30T16:46:23.466Z,26.27
2022-08-30T16:48:59.288Z,26.23
2022-08-30T16:51:28.303Z,26.21
2022-08-30T16:53:57.507Z,26.17
2022-08-30T16:56:26.762Z,26.17
2022-08-30T16:59:01.266Z,26.11
2022-08-30T17:01:29.817Z,26.04
2022-08-30T17:03:58.007Z,26.00
2022-08-30T17:06:25.861Z,25.92
2022-08-30T17:08:56.180Z,25.87
2022-08-30T17:11:25.347Z,25.84
2022-08-30T17:13:53.671Z,25.79
2022-08-30T17:16:22.500Z,25.75
2022-08-30T17:19:00.873Z,25.71
2022-08-30T17:21:32.152Z,25.67
2022-08-30T17:24:02.643Z,25.62
2022-08-30T17:26:34.711Z,25.53
2022-08-30T17:29:03.056Z,25.49
2022-08-30T17:31:31.704Z,25.47
2022-08-30T17:34:03.167Z,25.43
2022-08-30T17:36:36.196Z,25.39
2022-08-30T17:39:11.142Z,25.36
2022-08-30T17:41:45.247Z,25.32
2022-08-30T17:44:17.835Z,25.27
2022-08-30T17:46:45.993Z,25.23
2022-08-30T17:49:13.818Z,25.19
2022-08-30T17:51:43.916Z,25.14
2022-08-30T17:54:13.145Z,25.06
2022-08-30T17:56:44.321Z,24.97
2022-08-30T17:59:12.346Z,24.87
2022-08-30T18:01:40.265Z,24.78
2022-08-30T18:04:08.072Z,24.71
2022-08-30T18:06:36.408Z,24.67
2022-08-30T18:09:06.615Z,24.62
2022-08-30T18:11:37.059Z,24.59
2022-08-30T18:14:05.311Z,24.52
2022-08-30T18:16:36.665Z,24.45
2022-08-30T18:19:09.595Z,24.37
2022-08-30T18:21:38.096Z,24.31
2022-08-30T18:24:06.355Z,24.26
2022-08-30T18:26:36.740Z,24.24
2022-08-30T18:29:10.889Z,24.23
2022-08-30T18:31:38.766Z,24.20
2022-08-30T18:34:12.347Z,24.19
2022-08-30T18:36:40.636Z,24.11
2022-08-30T18:39:09.424Z,24.07
2022-08-30T18:41:43.239Z,24.03
2022-08-30T18:44:27.108Z,23.97
2022-08-30T18:46:57.172Z,23.89
2022-08-30T18:49:26.398Z,23.87
2022-08-30T18:51:54.402Z,23.84
2022-08-30T18:54:22.272Z,23.87
2022-08-30T18:56:50.679Z,23.78
2022-08-30T18:59:20.138Z,23.76
2022-08-30T19:01:49.130Z,23.73
2022-08-30T19:04:29.645Z,23.68
2022-08-30T19:07:04.721Z,23.67
2022-08-30T19:09:32.598Z,23.61
2022-08-30T19:12:00.533Z,23.56
2022-08-30T19:14:28.592Z,23.53
2022-08-30T19:16:57.377Z,23.50
2022-08-30T19:19:27.403Z,23.46
2022-08-30T19:21:55.223Z,23.42
2022-08-30T19:24:24.218Z,23.38
2022-08-30T19:26:52.226Z,23.32
2022-08-30T19:29:20.125Z,23.31
2022-08-30T19:31:48.128Z,23.27
2022-08-30T19:34:16.215Z,23.23
2022-08-30T19:36:44.103Z,23.17
2022-08-30T19:39:12.826Z,23.17
2022-08-30T19:41:40.862Z,23.13
2022-08-30T19:44:08.686Z,23.09
2022-08-30T19:46:37.631Z,23.05
2022-08-30T19:49:06.165Z,23.02
2022-08-30T19:51:34.321Z,23.05
2022-08-30T19:54:03.509Z,23.00
2022-08-30T19:56:31.391Z,23.01
2022-08-30T19:58:59.175Z,22.99
2022-08-30T20:01:33.178Z,22.96
2022-08-30T20:04:03.119Z,22.93
2022-08-30T20:06:33.566Z,22.91
2022-08-30T20:09:02.888Z,22.88
2022-08-30T20:11:31.371Z,22.91
2022-08-30T20:14:00.101Z,22.92
2022-08-30T20:16:37.922Z,22.90
2022-08-30T20:19:07.394Z,22.89
2022-08-30T20:21:35.573Z,22.91
2022-08-30T20:24:04.108Z,22.89
2022-08-30T20:26:34.117Z,22.85
2022-08-30T20:29:03.170Z,22.81
2022-08-30T20:31:31.242Z,22.84
2022-08-30T20:33:59.331Z,22.84
2022-08-30T20:36:27.364Z,22.85
2022-08-30T20:38:55.464Z,22.87
2022-08-30T20:41:24.703Z,22.87
2022-08-30T20:43:54.148Z,22.85
2022-08-30T20:46:22.282Z,22.84
2022-08-30T20:48:50.296Z,22.84
2022-08-30T20:51:19.263Z,22.80
2022-08-30T20:53:47.147Z,22.76
2022-08-30T20:56:19.892Z,22.74
2022-08-30T20:58:47.777Z,22.67
2022-08-30T21:01:15.858Z,22.65
2022-08-30T21:03:44.976Z,22.58
2022-08-30T21:06:17.444Z,22.58
2022-08-30T21:08:45.304Z,22.53
2022-08-30T21:11:19.844Z,22.47
2022-08-30T21:13:49.509Z,22.44
2022-08-30T21:16:22.005Z,22.38
2022-08-30T21:18:50.204Z,22.32
2022-08-30T21:21:23.273Z,22.26
2022-08-30T21:23:51.622Z,22.22
2022-08-30T21:26:19.638Z,22.19
2022-08-30T21:28:49.178Z,22.15
2022-08-30T21:31:19.627Z,22.10
2022-08-30T21:33:48.958Z,22.06
2022-08-30T21:36:35.546Z,21.98
2022-08-30T21:39:03.604Z,21.91
2022-08-30T21:41:31.655Z,21.90
2022-08-30T21:44:03.614Z,21.86
2022-08-30T21:46:32.983Z,21.76
2022-08-30T21:49:02.526Z,21.64
2022-08-30T21:51:32.512Z,21.59
2022-08-30T21:54:00.438Z,21.50
2022-08-30T21:56:32.939Z,21.49
2022-08-30T21:59:01.051Z,21.48
2022-08-30T22:01:30.054Z,21.45
2022-08-30T22:03:59.324Z,21.42
2022-08-30T22:06:31.116Z,21.34
2022-08-30T22:08:59.926Z,21.33
2022-08-30T22:11:28.147Z,21.28
2022-08-30T22:13:56.430Z,21.26
2022-08-30T22:16:24.444Z,21.21
2022-08-30T22:18:52.460Z,21.18
2022-08-30T22:21:22.678Z,21.12
2022-08-30T22:23:50.684Z,21.08
2022-08-30T22:26:19.465Z,21.05
2022-08-30T22:28:47.338Z,21.02
2022-08-30T22:31:16.275Z,20.97
2022-08-30T22:33:44.490Z,20.92
2022-08-30T22:36:15.200Z,20.93
2022-08-30T22:38:43.054Z,20.92
2022-08-30T22:41:16.621Z,20.92
2022-08-30T22:43:44.850Z,20.94
2022-08-30T22:46:12.812Z,20.94
2022-08-30T22:48:41.847Z,20.93
2022-08-30T22:51:10.023Z,20.88
2022-08-30T22:53:37.937Z,20.86
2022-08-30T22:56:26.042Z,20.85
2022-08-30T22:58:54.020Z,20.81
2022-08-30T23:01:21.852Z,20.74
2022-08-30T23:03:50.363Z,20.73
2022-08-30T23:06:18.354Z,20.75
2022-08-30T23:08:46.312Z,20.70
2022-08-30T23:11:14.154Z,20.72
2022-08-30T23:13:42.162Z,20.71
2022-08-30T23:16:10.657Z,20.61
2022-08-30T23:18:39.843Z,20.59
2022-08-30T23:21:10.979Z,20.51
2022-08-30T23:23:57.898Z,20.54
2022-08-30T23:26:44.368Z,20.53
2022-08-30T23:29:31.106Z,20.52
2022-08-30T23:32:17.312Z,20.50
2022-08-30T23:35:03.864Z,20.46
2022-08-30T23:37:52.925Z,20.39
2022-08-30T23:40:40.433Z,20.39
2022-08-30T23:43:27.909Z,20.35
2022-08-30T23:46:18.814Z,20.14
2022-08-30T23:49:06.928Z,19.94
2022-08-30T23:51:53.752Z,19.80
2022-08-30T23:54:40.231Z,19.69
2022-08-30T23:57:26.521Z,19.68
